sensor_id;sensor_type;location;lat;lon;timestamp;P1;durP1;ratioP1;P2;durP2;ratioP2
18526;SDS011;9393;42.158;24.748;2023-02-01T00:00:34;5.07;;;3.27;;
18526;SDS011;9393;42.158;24.748;2023-02-01T00:03:38;5.10;;;2.77;;
18526;SDS011;9393;42.158;24.748;2023-02-01T00:06:42;4.30;;;3.10;;
18526;SDS011;9393;42.158;24.748;2023-02-01T00:09:45;3.80;;;3.00;;
18526;SDS011;9393;42.158;24.748;2023-02-01T00:12:49;4.40;;;2.73;;
18526;SDS011;9393;42.158;24.748;2023-02-01T00:15:54;4.37;;;2.83;;
18526;SDS011;9393;42.158;24.748;2023-02-01T00:18:59;3.53;;;2.73;;
18526;SDS011;9393;42.158;24.748;2023-02-01T00:22:04;5.33;;;2.90;;
18526;SDS011;9393;42.158;24.748;2023-02-01T00:25:08;3.67;;;2.67;;
18526;SDS011;9393;42.158;24.748;2023-02-01T00:28:12;3.17;;;2.10;;
18526;SDS011;9393;42.158;24.748;2023-02-01T00:31:17;3.00;;;2.50;;
18526;SDS011;9393;42.158;24.748;2023-02-01T00:34:21;4.70;;;2.83;;
18526;SDS011;9393;42.158;24.748;2023-02-01T00:37:24;5.87;;;3.10;;
18526;SDS011;9393;42.158;24.748;2023-02-01T00:40:28;3.43;;;2.50;;
18526;SDS011;9393;42.158;24.748;2023-02-01T00:43:32;5.87;;;2.73;;
18526;SDS011;9393;42.158;24.748;2023-02-01T00:46:38;3.50;;;2.80;;
18526;SDS011;9393;42.158;24.748;2023-02-01T00:49:42;4.77;;;3.17;;
18526;SDS011;9393;42.158;24.748;2023-02-01T00:52:46;4.37;;;3.23;;
18526;SDS011;9393;42.158;24.748;2023-02-01T00:55:49;3.73;;;2.33;;
18526;SDS011;9393;42.158;24.748;2023-02-01T00:58:53;4.47;;;3.10;;
18526;SDS011;9393;42.158;24.748;2023-02-01T01:01:58;3.27;;;2.43;;
18526;SDS011;9393;42.158;24.748;2023-02-01T01:05:02;6.73;;;3.10;;
18526;SDS011;9393;42.158;24.748;2023-02-01T01:08:05;4.53;;;2.70;;
18526;SDS011;9393;42.158;24.748;2023-02-01T01:11:10;4.43;;;2.83;;
18526;SDS011;9393;42.158;24.748;2023-02-01T01:14:15;3.50;;;2.43;;
18526;SDS011;9393;42.158;24.748;2023-02-01T01:17:20;2.50;;;2.30;;
18526;SDS011;9393;42.158;24.748;2023-02-01T01:20:24;2.60;;;2.30;;
18526;SDS011;9393;42.158;24.748;2023-02-01T01:23:27;3.13;;;2.47;;
18526;SDS011;9393;42.158;24.748;2023-02-01T01:26:31;3.93;;;2.70;;
18526;SDS011;9393;42.158;24.748;2023-02-01T01:29:35;4.40;;;3.07;;
18526;SDS011;9393;42.158;24.748;2023-02-01T01:32:40;6.33;;;2.60;;
18526;SDS011;9393;42.158;24.748;2023-02-01T01:35:44;4.33;;;2.90;;
18526;SDS011;9393;42.158;24.748;2023-02-01T01:38:47;3.37;;;2.30;;
18526;SDS011;9393;42.158;24.748;2023-02-01T01:41:52;3.23;;;2.93;;
18526;SDS011;9393;42.158;24.748;2023-02-01T01:44:59;4.33;;;3.03;;
18526;SDS011;9393;42.158;24.748;2023-02-01T01:48:08;3.43;;;2.33;;
18526;SDS011;9393;42.158;24.748;2023-02-01T01:51:17;3.33;;;2.30;;
18526;SDS011;9393;42.158;24.748;2023-02-01T01:54:23;2.30;;;2.10;;
18526;SDS011;9393;42.158;24.748;2023-02-01T01:57:31;3.30;;;2.33;;
18526;SDS011;9393;42.158;24.748;2023-02-01T02:00:40;3.33;;;2.57;;
18526;SDS011;9393;42.158;24.748;2023-02-01T02:03:46;2.80;;;2.40;;
18526;SDS011;9393;42.158;24.748;2023-02-01T02:06:51;4.60;;;2.77;;
18526;SDS011;9393;42.158;24.748;2023-02-01T02:10:00;3.47;;;2.57;;
18526;SDS011;9393;42.158;24.748;2023-02-01T02:13:07;3.33;;;2.27;;
18526;SDS011;9393;42.158;24.748;2023-02-01T02:16:16;3.33;;;2.57;;
18526;SDS011;9393;42.158;24.748;2023-02-01T02:19:45;4.93;;;2.80;;
18526;SDS011;9393;42.158;24.748;2023-02-01T02:26:58;4.07;;;2.67;;
18526;SDS011;9393;42.158;24.748;2023-02-01T02:34:00;3.87;;;2.43;;
18526;SDS011;9393;42.158;24.748;2023-02-01T02:37:15;4.40;;;2.63;;
18526;SDS011;9393;42.158;24.748;2023-02-01T02:40:27;3.00;;;2.30;;
18526;SDS011;9393;42.158;24.748;2023-02-01T02:43:37;4.10;;;2.60;;
18526;SDS011;9393;42.158;24.748;2023-02-01T02:47:09;3.53;;;2.37;;
18526;SDS011;9393;42.158;24.748;2023-02-01T02:50:29;3.67;;;2.77;;
18526;SDS011;9393;42.158;24.748;2023-02-01T02:53:58;3.17;;;2.03;;
18526;SDS011;9393;42.158;24.748;2023-02-01T02:57:26;4.27;;;2.90;;
18526;SDS011;9393;42.158;24.748;2023-02-01T03:00:51;3.30;;;2.90;;
18526;SDS011;9393;42.158;24.748;2023-02-01T03:04:14;5.40;;;2.93;;
18526;SDS011;9393;42.158;24.748;2023-02-01T03:11:07;2.97;;;2.13;;
18526;SDS011;9393;42.158;24.748;2023-02-01T03:14:13;2.83;;;2.13;;
18526;SDS011;9393;42.158;24.748;2023-02-01T03:17:20;4.00;;;2.50;;
18526;SDS011;9393;42.158;24.748;2023-02-01T03:20:30;3.30;;;2.50;;
18526;SDS011;9393;42.158;24.748;2023-02-01T03:23:35;2.80;;;2.53;;
18526;SDS011;9393;42.158;24.748;2023-02-01T03:26:42;4.40;;;2.73;;
18526;SDS011;9393;42.158;24.748;2023-02-01T03:29:52;3.40;;;2.77;;
18526;SDS011;9393;42.158;24.748;2023-02-01T03:33:03;5.20;;;3.40;;
18526;SDS011;9393;42.158;24.748;2023-02-01T03:36:17;3.93;;;2.63;;
18526;SDS011;9393;42.158;24.748;2023-02-01T03:39:29;4.20;;;2.63;;
18526;SDS011;9393;42.158;24.748;2023-02-01T03:42:40;6.37;;;3.50;;
18526;SDS011;9393;42.158;24.748;2023-02-01T03:45:49;5.33;;;3.27;;
18526;SDS011;9393;42.158;24.748;2023-02-01T03:48:57;5.83;;;4.10;;
18526;SDS011;9393;42.158;24.748;2023-02-01T03:52:06;4.17;;;3.50;;
18526;SDS011;9393;42.158;24.748;2023-02-01T03:55:13;6.40;;;3.80;;
18526;SDS011;9393;42.158;24.748;2023-02-01T03:58:21;4.27;;;3.37;;
18526;SDS011;9393;42.158;24.748;2023-02-01T04:01:26;7.13;;;3.97;;
18526;SDS011;9393;42.158;24.748;2023-02-01T04:04:31;5.17;;;3.87;;
18526;SDS011;9393;42.158;24.748;2023-02-01T04:07:37;5.33;;;3.83;;
18526;SDS011;9393;42.158;24.748;2023-02-01T04:10:41;4.43;;;3.30;;
18526;SDS011;9393;42.158;24.748;2023-02-01T04:13:47;6.20;;;3.67;;
18526;SDS011;9393;42.158;24.748;2023-02-01T04:16:50;8.07;;;4.07;;
18526;SDS011;9393;42.158;24.748;2023-02-01T04:19:54;6.03;;;3.80;;
18526;SDS011;9393;42.158;24.748;2023-02-01T04:22:58;6.73;;;3.50;;
18526;SDS011;9393;42.158;24.748;2023-02-01T04:26:04;3.80;;;3.40;;
18526;SDS011;9393;42.158;24.748;2023-02-01T04:29:10;4.23;;;3.40;;
18526;SDS011;9393;42.158;24.748;2023-02-01T04:32:13;7.00;;;3.90;;
18526;SDS011;9393;42.158;24.748;2023-02-01T04:35:17;3.60;;;3.30;;
18526;SDS011;9393;42.158;24.748;2023-02-01T04:38:21;4.67;;;3.50;;
18526;SDS011;9393;42.158;24.748;2023-02-01T04:41:25;5.63;;;3.80;;
18526;SDS011;9393;42.158;24.748;2023-02-01T04:44:30;4.40;;;3.20;;
18526;SDS011;9393;42.158;24.748;2023-02-01T04:47:33;3.27;;;2.13;;
18526;SDS011;9393;42.158;24.748;2023-02-01T04:50:37;6.20;;;4.10;;
18526;SDS011;9393;42.158;24.748;2023-02-01T04:53:41;7.90;;;4.67;;
18526;SDS011;9393;42.158;24.748;2023-02-01T04:56:44;6.33;;;4.17;;
18526;SDS011;9393;42.158;24.748;2023-02-01T04:59:49;6.77;;;4.23;;
18526;SDS011;9393;42.158;24.748;2023-02-01T05:02:53;5.73;;;3.97;;
18526;SDS011;9393;42.158;24.748;2023-02-01T05:05:56;7.07;;;3.30;;
18526;SDS011;9393;42.158;24.748;2023-02-01T05:09:00;5.13;;;3.80;;
18526;SDS011;9393;42.158;24.748;2023-02-01T05:12:04;9.20;;;3.80;;
18526;SDS011;9393;42.158;24.748;2023-02-01T05:15:26;6.77;;;3.17;;
18526;SDS011;9393;42.158;24.748;2023-02-01T05:18:30;5.47;;;3.30;;
18526;SDS011;9393;42.158;24.748;2023-02-01T05:21:34;8.03;;;3.80;;
18526;SDS011;9393;42.158;24.748;2023-02-01T05:24:38;6.07;;;3.00;;
18526;SDS011;9393;42.158;24.748;2023-02-01T05:27:42;6.83;;;3.60;;
18526;SDS011;9393;42.158;24.748;2023-02-01T05:30:47;9.33;;;3.10;;
18526;SDS011;9393;42.158;24.748;2023-02-01T05:33:51;4.87;;;3.07;;
18526;SDS011;9393;42.158;24.748;2023-02-01T05:36:54;5.30;;;2.97;;
18526;SDS011;9393;42.158;24.748;2023-02-01T05:39:58;9.93;;;3.87;;
18526;SDS011;9393;42.158;24.748;2023-02-01T05:43:02;6.90;;;4.47;;
18526;SDS011;9393;42.158;24.748;2023-02-01T05:46:07;6.97;;;3.43;;
18526;SDS011;9393;42.158;24.748;2023-02-01T05:49:14;5.53;;;3.40;;
18526;SDS011;9393;42.158;24.748;2023-02-01T05:52:18;6.93;;;3.73;;
18526;SDS011;9393;42.158;24.748;2023-02-01T05:55:21;5.07;;;3.50;;
18526;SDS011;9393;42.158;24.748;2023-02-01T05:58:25;10.13;;;3.33;;
18526;SDS011;9393;42.158;24.748;2023-02-01T06:01:29;8.27;;;3.53;;
18526;SDS011;9393;42.158;24.748;2023-02-01T06:04:33;8.17;;;3.40;;
18526;SDS011;9393;42.158;24.748;2023-02-01T06:07:37;4.80;;;3.10;;
18526;SDS011;9393;42.158;24.748;2023-02-01T06:10:40;3.93;;;2.87;;
18526;SDS011;9393;42.158;24.748;2023-02-01T06:13:44;3.57;;;2.83;;
18526;SDS011;9393;42.158;24.748;2023-02-01T06:16:49;5.97;;;3.43;;
18526;SDS011;9393;42.158;24.748;2023-02-01T06:19:54;5.53;;;3.30;;
18526;SDS011;9393;42.158;24.748;2023-02-01T06:22:57;3.93;;;2.70;;
18526;SDS011;9393;42.158;24.748;2023-02-01T06:26:02;8.03;;;3.67;;
18526;SDS011;9393;42.158;24.748;2023-02-01T06:29:09;6.13;;;3.10;;
18526;SDS011;9393;42.158;24.748;2023-02-01T06:32:15;12.17;;;4.03;;
18526;SDS011;9393;42.158;24.748;2023-02-01T06:35:19;5.23;;;2.77;;
18526;SDS011;9393;42.158;24.748;2023-02-01T06:38:23;6.20;;;3.37;;
18526;SDS011;9393;42.158;24.748;2023-02-01T06:41:26;9.43;;;3.27;;
18526;SDS011;9393;42.158;24.748;2023-02-01T06:44:30;9.97;;;3.60;;
18526;SDS011;9393;42.158;24.748;2023-02-01T06:47:36;12.50;;;3.43;;
18526;SDS011;9393;42.158;24.748;2023-02-01T06:50:39;8.30;;;3.77;;
18526;SDS011;9393;42.158;24.748;2023-02-01T06:53:43;9.50;;;3.80;;
18526;SDS011;9393;42.158;24.748;2023-02-01T06:56:47;10.37;;;4.00;;
18526;SDS011;9393;42.158;24.748;2023-02-01T06:59:51;6.57;;;3.43;;
18526;SDS011;9393;42.158;24.748;2023-02-01T07:02:56;4.97;;;3.40;;
18526;SDS011;9393;42.158;24.748;2023-02-01T07:06:01;7.07;;;3.47;;
18526;SDS011;9393;42.158;24.748;2023-02-01T07:09:06;6.10;;;3.37;;
18526;SDS011;9393;42.158;24.748;2023-02-01T07:12:11;5.67;;;3.00;;
18526;SDS011;9393;42.158;24.748;2023-02-01T07:15:15;5.93;;;3.00;;
18526;SDS011;9393;42.158;24.748;2023-02-01T07:18:20;12.50;;;2.80;;
18526;SDS011;9393;42.158;24.748;2023-02-01T07:21:24;3.73;;;2.63;;
18526;SDS011;9393;42.158;24.748;2023-02-01T07:24:29;5.27;;;3.07;;
18526;SDS011;9393;42.158;24.748;2023-02-01T07:27:33;5.43;;;2.77;;
18526;SDS011;9393;42.158;24.748;2023-02-01T07:30:37;2.87;;;2.40;;
18526;SDS011;9393;42.158;24.748;2023-02-01T07:33:42;6.50;;;2.33;;
18526;SDS011;9393;42.158;24.748;2023-02-01T07:36:46;8.43;;;2.83;;
18526;SDS011;9393;42.158;24.748;2023-02-01T07:39:50;5.57;;;2.57;;
18526;SDS011;9393;42.158;24.748;2023-02-01T07:42:54;3.30;;;1.93;;
18526;SDS011;9393;42.158;24.748;2023-02-01T07:45:58;10.00;;;2.60;;
18526;SDS011;9393;42.158;24.748;2023-02-01T07:49:03;4.67;;;2.70;;
18526;SDS011;9393;42.158;24.748;2023-02-01T07:52:07;10.57;;;3.10;;
18526;SDS011;9393;42.158;24.748;2023-02-01T07:55:17;10.10;;;3.03;;
18526;SDS011;9393;42.158;24.748;2023-02-01T07:58:20;10.17;;;2.73;;
18526;SDS011;9393;42.158;24.748;2023-02-01T08:01:25;6.13;;;3.50;;
18526;SDS011;9393;42.158;24.748;2023-02-01T08:04:32;6.80;;;2.90;;
18526;SDS011;9393;42.158;24.748;2023-02-01T08:07:36;8.13;;;3.40;;
18526;SDS011;9393;42.158;24.748;2023-02-01T08:10:39;9.23;;;3.77;;
18526;SDS011;9393;42.158;24.748;2023-02-01T08:13:43;4.10;;;3.10;;
18526;SDS011;9393;42.158;24.748;2023-02-01T08:16:47;8.97;;;4.63;;
18526;SDS011;9393;42.158;24.748;2023-02-01T08:19:52;6.33;;;3.60;;
18526;SDS011;9393;42.158;24.748;2023-02-01T08:22:56;10.90;;;4.03;;
18526;SDS011;9393;42.158;24.748;2023-02-01T08:26:06;8.53;;;4.30;;
18526;SDS011;9393;42.158;24.748;2023-02-01T08:29:11;6.83;;;4.17;;
18526;SDS011;9393;42.158;24.748;2023-02-01T08:32:15;10.30;;;5.07;;
18526;SDS011;9393;42.158;24.748;2023-02-01T08:35:20;6.60;;;3.47;;
18526;SDS011;9393;42.158;24.748;2023-02-01T08:38:34;15.87;;;3.90;;
18526;SDS011;9393;42.158;24.748;2023-02-01T08:41:39;12.60;;;4.40;;
18526;SDS011;9393;42.158;24.748;2023-02-01T08:44:43;6.90;;;3.40;;
18526;SDS011;9393;42.158;24.748;2023-02-01T08:47:49;10.70;;;4.40;;
18526;SDS011;9393;42.158;24.748;2023-02-01T08:50:54;9.40;;;4.37;;
18526;SDS011;9393;42.158;24.748;2023-02-01T08:53:58;11.83;;;4.83;;
18526;SDS011;9393;42.158;24.748;2023-02-01T08:57:02;6.67;;;4.30;;
18526;SDS011;9393;42.158;24.748;2023-02-01T09:00:07;7.63;;;4.40;;
18526;SDS011;9393;42.158;24.748;2023-02-01T09:03:14;7.20;;;4.07;;
18526;SDS011;9393;42.158;24.748;2023-02-01T09:06:20;7.60;;;3.77;;
18526;SDS011;9393;42.158;24.748;2023-02-01T09:09:24;7.63;;;4.17;;
18526;SDS011;9393;42.158;24.748;2023-02-01T09:12:31;11.10;;;4.30;;
18526;SDS011;9393;42.158;24.748;2023-02-01T09:15:36;6.10;;;4.07;;
18526;SDS011;9393;42.158;24.748;2023-02-01T09:18:41;9.77;;;3.90;;
18526;SDS011;9393;42.158;24.748;2023-02-01T09:22:06;8.93;;;3.13;;
18526;SDS011;9393;42.158;24.748;2023-02-01T09:25:09;7.47;;;3.03;;
18526;SDS011;9393;42.158;24.748;2023-02-01T09:28:14;4.23;;;2.97;;
18526;SDS011;9393;42.158;24.748;2023-02-01T09:31:18;6.47;;;2.13;;
18526;SDS011;9393;42.158;24.748;2023-02-01T09:34:22;3.17;;;2.20;;
18526;SDS011;9393;42.158;24.748;2023-02-01T09:37:27;5.67;;;3.00;;
18526;SDS011;9393;42.158;24.748;2023-02-01T09:40:31;4.70;;;2.60;;
18526;SDS011;9393;42.158;24.748;2023-02-01T09:43:38;4.53;;;2.27;;
18526;SDS011;9393;42.158;24.748;2023-02-01T09:46:46;3.50;;;2.03;;
18526;SDS011;9393;42.158;24.748;2023-02-01T09:49:51;5.57;;;2.40;;
18526;SDS011;9393;42.158;24.748;2023-02-01T09:53:01;2.03;;;1.63;;
18526;SDS011;9393;42.158;24.748;2023-02-01T09:56:10;3.30;;;1.60;;
18526;SDS011;9393;42.158;24.748;2023-02-01T09:59:20;3.13;;;1.50;;
18526;SDS011;9393;42.158;24.748;2023-02-01T10:02:34;3.93;;;1.50;;
18526;SDS011;9393;42.158;24.748;2023-02-01T10:05:47;4.03;;;1.73;;
18526;SDS011;9393;42.158;24.748;2023-02-01T10:09:14;2.67;;;1.43;;
18526;SDS011;9393;42.158;24.748;2023-02-01T10:16:18;6.60;;;1.40;;
18526;SDS011;9393;42.158;24.748;2023-02-01T10:19:32;4.33;;;1.87;;
18526;SDS011;9393;42.158;24.748;2023-02-01T10:22:49;4.23;;;1.50;;
18526;SDS011;9393;42.158;24.748;2023-02-01T10:26:19;3.90;;;1.83;;
18526;SDS011;9393;42.158;24.748;2023-02-01T10:29:26;3.13;;;1.77;;
18526;SDS011;9393;42.158;24.748;2023-02-01T10:32:38;6.30;;;2.10;;
18526;SDS011;9393;42.158;24.748;2023-02-01T10:35:44;6.47;;;2.10;;
18526;SDS011;9393;42.158;24.748;2023-02-01T10:38:49;5.40;;;2.03;;
18526;SDS011;9393;42.158;24.748;2023-02-01T10:41:54;1.87;;;1.50;;
18526;SDS011;9393;42.158;24.748;2023-02-01T10:44:59;2.37;;;1.60;;
18526;SDS011;9393;42.158;24.748;2023-02-01T10:48:06;5.87;;;1.60;;
18526;SDS011;9393;42.158;24.748;2023-02-01T10:51:12;4.87;;;2.50;;
18526;SDS011;9393;42.158;24.748;2023-02-01T10:54:20;3.67;;;1.80;;
18526;SDS011;9393;42.158;24.748;2023-02-01T10:57:27;8.03;;;2.23;;
18526;SDS011;9393;42.158;24.748;2023-02-01T11:00:37;4.40;;;2.20;;
18526;SDS011;9393;42.158;24.748;2023-02-01T11:03:51;7.97;;;3.07;;
18526;SDS011;9393;42.158;24.748;2023-02-01T11:07:04;4.70;;;1.80;;
18526;SDS011;9393;42.158;24.748;2023-02-01T11:10:13;3.60;;;1.83;;
18526;SDS011;9393;42.158;24.748;2023-02-01T11:13:41;2.37;;;1.60;;
18526;SDS011;9393;42.158;24.748;2023-02-01T11:16:47;3.77;;;1.60;;
18526;SDS011;9393;42.158;24.748;2023-02-01T11:19:56;3.77;;;1.80;;
18526;SDS011;9393;42.158;24.748;2023-02-01T11:23:01;5.00;;;2.10;;
18526;SDS011;9393;42.158;24.748;2023-02-01T11:26:07;2.13;;;1.63;;
18526;SDS011;9393;42.158;24.748;2023-02-01T11:29:17;3.17;;;1.13;;
18526;SDS011;9393;42.158;24.748;2023-02-01T11:32:24;4.47;;;2.00;;
18526;SDS011;9393;42.158;24.748;2023-02-01T11:35:29;2.60;;;1.80;;
18526;SDS011;9393;42.158;24.748;2023-02-01T11:38:34;3.87;;;1.70;;
18526;SDS011;9393;42.158;24.748;2023-02-01T11:41:41;2.87;;;1.20;;
18526;SDS011;9393;42.158;24.748;2023-02-01T11:44:47;3.50;;;1.73;;
18526;SDS011;9393;42.158;24.748;2023-02-01T11:47:52;3.50;;;1.60;;
18526;SDS011;9393;42.158;24.748;2023-02-01T11:51:04;4.13;;;2.00;;
18526;SDS011;9393;42.158;24.748;2023-02-01T11:54:27;2.47;;;1.67;;
18526;SDS011;9393;42.158;24.748;2023-02-01T11:57:46;5.20;;;1.67;;
18526;SDS011;9393;42.158;24.748;2023-02-01T12:01:02;2.87;;;1.70;;
18526;SDS011;9393;42.158;24.748;2023-02-01T12:08:34;2.97;;;1.50;;
18526;SDS011;9393;42.158;24.748;2023-02-01T12:11:57;7.47;;;1.17;;
18526;SDS011;9393;42.158;24.748;2023-02-01T12:15:19;2.20;;;1.23;;
18526;SDS011;9393;42.158;24.748;2023-02-01T12:18:41;4.33;;;2.30;;
18526;SDS011;9393;42.158;24.748;2023-02-01T12:22:00;4.87;;;1.97;;
18526;SDS011;9393;42.158;24.748;2023-02-01T12:25:20;1.27;;;1.00;;
18526;SDS011;9393;42.158;24.748;2023-02-01T12:28:36;3.57;;;2.10;;
18526;SDS011;9393;42.158;24.748;2023-02-01T12:32:04;2.03;;;1.33;;
18526;SDS011;9393;42.158;24.748;2023-02-01T12:35:25;1.40;;;0.93;;
18526;SDS011;9393;42.158;24.748;2023-02-01T12:38:46;3.57;;;1.70;;
18526;SDS011;9393;42.158;24.748;2023-02-01T12:41:57;1.57;;;1.40;;
18526;SDS011;9393;42.158;24.748;2023-02-01T12:45:10;3.80;;;1.67;;
18526;SDS011;9393;42.158;24.748;2023-02-01T12:48:21;3.10;;;1.40;;
18526;SDS011;9393;42.158;24.748;2023-02-01T12:51:33;3.23;;;1.57;;
18526;SDS011;9393;42.158;24.748;2023-02-01T12:54:41;3.10;;;1.77;;
18526;SDS011;9393;42.158;24.748;2023-02-01T12:57:50;6.07;;;2.90;;
18526;SDS011;9393;42.158;24.748;2023-02-01T13:00:59;7.87;;;2.33;;
18526;SDS011;9393;42.158;24.748;2023-02-01T13:04:08;5.30;;;2.40;;
18526;SDS011;9393;42.158;24.748;2023-02-01T13:07:20;5.30;;;1.97;;
18526;SDS011;9393;42.158;24.748;2023-02-01T13:10:29;4.07;;;2.20;;
18526;SDS011;9393;42.158;24.748;2023-02-01T13:13:40;6.67;;;3.00;;
18526;SDS011;9393;42.158;24.748;2023-02-01T13:16:52;5.17;;;2.23;;
18526;SDS011;9393;42.158;24.748;2023-02-01T13:20:03;8.60;;;2.27;;
18526;SDS011;9393;42.158;24.748;2023-02-01T13:23:13;4.63;;;1.90;;
18526;SDS011;9393;42.158;24.748;2023-02-01T13:26:21;5.20;;;2.10;;
18526;SDS011;9393;42.158;24.748;2023-02-01T13:29:25;3.90;;;1.83;;
18526;SDS011;9393;42.158;24.748;2023-02-01T13:32:35;2.63;;;1.63;;
18526;SDS011;9393;42.158;24.748;2023-02-01T13:36:17;3.47;;;1.60;;
18526;SDS011;9393;42.158;24.748;2023-02-01T13:39:37;3.83;;;1.67;;
18526;SDS011;9393;42.158;24.748;2023-02-01T13:42:52;1.90;;;1.50;;
18526;SDS011;9393;42.158;24.748;2023-02-01T13:46:02;3.40;;;1.80;;
18526;SDS011;9393;42.158;24.748;2023-02-01T13:49:15;3.43;;;1.80;;
18526;SDS011;9393;42.158;24.748;2023-02-01T13:52:26;3.03;;;1.50;;
18526;SDS011;9393;42.158;24.748;2023-02-01T13:55:36;3.77;;;2.00;;
18526;SDS011;9393;42.158;24.748;2023-02-01T13:58:42;5.90;;;1.27;;
18526;SDS011;9393;42.158;24.748;2023-02-01T14:01:47;4.30;;;1.93;;
18526;SDS011;9393;42.158;24.748;2023-02-01T14:04:51;6.33;;;2.00;;
18526;SDS011;9393;42.158;24.748;2023-02-01T14:08:09;5.97;;;2.03;;
18526;SDS011;9393;42.158;24.748;2023-02-01T14:11:36;2.77;;;1.70;;
18526;SDS011;9393;42.158;24.748;2023-02-01T14:14:42;2.10;;;1.37;;
18526;SDS011;9393;42.158;24.748;2023-02-01T14:17:46;2.87;;;1.63;;
18526;SDS011;9393;42.158;24.748;2023-02-01T14:20:50;3.10;;;1.50;;
18526;SDS011;9393;42.158;24.748;2023-02-01T14:24:24;2.27;;;1.60;;
18526;SDS011;9393;42.158;24.748;2023-02-01T14:27:33;4.17;;;1.50;;
18526;SDS011;9393;42.158;24.748;2023-02-01T14:30:40;2.37;;;1.40;;
18526;SDS011;9393;42.158;24.748;2023-02-01T14:33:46;4.20;;;1.97;;
18526;SDS011;9393;42.158;24.748;2023-02-01T14:36:52;2.70;;;1.70;;
18526;SDS011;9393;42.158;24.748;2023-02-01T14:40:00;4.90;;;1.70;;
18526;SDS011;9393;42.158;24.748;2023-02-01T14:43:08;3.23;;;1.90;;
18526;SDS011;9393;42.158;24.748;2023-02-01T14:53:32;2.60;;;1.93;;
18526;SDS011;9393;42.158;24.748;2023-02-01T14:56:37;5.30;;;1.80;;
18526;SDS011;9393;42.158;24.748;2023-02-01T14:59:43;4.80;;;2.53;;
18526;SDS011;9393;42.158;24.748;2023-02-01T15:02:49;5.03;;;2.50;;
18526;SDS011;9393;42.158;24.748;2023-02-01T15:05:54;5.50;;;1.97;;
18526;SDS011;9393;42.158;24.748;2023-02-01T15:09:00;4.37;;;2.93;;
18526;SDS011;9393;42.158;24.748;2023-02-01T15:12:17;4.23;;;2.00;;
18526;SDS011;9393;42.158;24.748;2023-02-01T15:15:30;4.80;;;2.60;;
18526;SDS011;9393;42.158;24.748;2023-02-01T15:18:38;5.33;;;3.00;;
18526;SDS011;9393;42.158;24.748;2023-02-01T15:21:44;6.23;;;2.87;;
18526;SDS011;9393;42.158;24.748;2023-02-01T15:24:51;8.00;;;3.33;;
18526;SDS011;9393;42.158;24.748;2023-02-01T15:27:56;6.63;;;3.37;;
18526;SDS011;9393;42.158;24.748;2023-02-01T15:31:02;6.43;;;3.07;;
18526;SDS011;9393;42.158;24.748;2023-02-01T15:34:08;6.80;;;2.37;;
18526;SDS011;9393;42.158;24.748;2023-02-01T15:37:12;5.80;;;2.10;;
18526;SDS011;9393;42.158;24.748;2023-02-01T15:40:19;6.17;;;2.87;;
18526;SDS011;9393;42.158;24.748;2023-02-01T15:43:24;7.83;;;2.60;;
18526;SDS011;9393;42.158;24.748;2023-02-01T15:46:32;4.03;;;2.40;;
18526;SDS011;9393;42.158;24.748;2023-02-01T15:49:39;5.13;;;2.40;;
18526;SDS011;9393;42.158;24.748;2023-02-01T15:52:46;2.93;;;1.53;;
18526;SDS011;9393;42.158;24.748;2023-02-01T15:55:52;4.17;;;2.47;;
18526;SDS011;9393;42.158;24.748;2023-02-01T15:59:00;5.00;;;2.70;;
18526;SDS011;9393;42.158;24.748;2023-02-01T16:05:36;6.33;;;2.50;;
18526;SDS011;9393;42.158;24.748;2023-02-01T16:08:48;4.87;;;2.30;;
18526;SDS011;9393;42.158;24.748;2023-02-01T16:11:55;4.30;;;2.53;;
18526;SDS011;9393;42.158;24.748;2023-02-01T16:15:01;4.67;;;2.20;;
18526;SDS011;9393;42.158;24.748;2023-02-01T16:18:05;3.40;;;1.97;;
18526;SDS011;9393;42.158;24.748;2023-02-01T16:21:11;3.43;;;2.13;;
18526;SDS011;9393;42.158;24.748;2023-02-01T16:24:15;3.50;;;2.07;;
18526;SDS011;9393;42.158;24.748;2023-02-01T16:27:18;7.87;;;2.50;;
18526;SDS011;9393;42.158;24.748;2023-02-01T16:30:24;4.63;;;2.20;;
18526;SDS011;9393;42.158;24.748;2023-02-01T16:33:28;4.43;;;2.60;;
18526;SDS011;9393;42.158;24.748;2023-02-01T16:36:33;7.00;;;3.37;;
18526;SDS011;9393;42.158;24.748;2023-02-01T16:39:37;9.53;;;3.87;;
18526;SDS011;9393;42.158;24.748;2023-02-01T16:42:40;6.73;;;3.37;;
18526;SDS011;9393;42.158;24.748;2023-02-01T16:45:45;7.93;;;3.10;;
18526;SDS011;9393;42.158;24.748;2023-02-01T16:48:51;3.93;;;2.50;;
18526;SDS011;9393;42.158;24.748;2023-02-01T16:51:58;10.37;;;2.70;;
18526;SDS011;9393;42.158;24.748;2023-02-01T16:55:04;8.10;;;3.10;;
18526;SDS011;9393;42.158;24.748;2023-02-01T16:58:11;6.77;;;2.87;;
18526;SDS011;9393;42.158;24.748;2023-02-01T17:01:16;5.83;;;3.40;;
18526;SDS011;9393;42.158;24.748;2023-02-01T17:04:21;5.97;;;2.90;;
18526;SDS011;9393;42.158;24.748;2023-02-01T17:07:27;4.07;;;2.60;;
18526;SDS011;9393;42.158;24.748;2023-02-01T17:10:31;4.43;;;2.60;;
18526;SDS011;9393;42.158;24.748;2023-02-01T17:13:35;7.13;;;2.87;;
18526;SDS011;9393;42.158;24.748;2023-02-01T17:16:39;4.13;;;2.47;;
18526;SDS011;9393;42.158;24.748;2023-02-01T17:19:43;3.63;;;2.80;;
18526;SDS011;9393;42.158;24.748;2023-02-01T17:22:51;8.43;;;3.50;;
18526;SDS011;9393;42.158;24.748;2023-02-01T17:25:55;7.13;;;3.40;;
18526;SDS011;9393;42.158;24.748;2023-02-01T17:28:59;8.13;;;3.63;;
18526;SDS011;9393;42.158;24.748;2023-02-01T17:32:03;5.97;;;2.87;;
18526;SDS011;9393;42.158;24.748;2023-02-01T17:35:10;5.03;;;2.90;;
18526;SDS011;9393;42.158;24.748;2023-02-01T17:38:22;5.30;;;3.37;;
18526;SDS011;9393;42.158;24.748;2023-02-01T17:41:26;8.80;;;4.10;;
18526;SDS011;9393;42.158;24.748;2023-02-01T17:44:30;10.00;;;3.50;;
18526;SDS011;9393;42.158;24.748;2023-02-01T17:47:34;6.97;;;3.20;;
18526;SDS011;9393;42.158;24.748;2023-02-01T17:50:39;7.13;;;3.77;;
18526;SDS011;9393;42.158;24.748;2023-02-01T17:53:45;6.47;;;3.63;;
18526;SDS011;9393;42.158;24.748;2023-02-01T17:56:49;8.13;;;3.70;;
18526;SDS011;9393;42.158;24.748;2023-02-01T17:59:53;6.53;;;3.50;;
18526;SDS011;9393;42.158;24.748;2023-02-01T18:02:57;9.40;;;3.40;;
18526;SDS011;9393;42.158;24.748;2023-02-01T18:06:02;5.77;;;3.20;;
18526;SDS011;9393;42.158;24.748;2023-02-01T18:09:08;6.67;;;4.07;;
18526;SDS011;9393;42.158;24.748;2023-02-01T18:12:13;13.70;;;4.43;;
18526;SDS011;9393;42.158;24.748;2023-02-01T18:15:21;5.63;;;3.67;;
18526;SDS011;9393;42.158;24.748;2023-02-01T18:18:27;6.37;;;3.37;;
18526;SDS011;9393;42.158;24.748;2023-02-01T18:21:32;5.03;;;2.83;;
18526;SDS011;9393;42.158;24.748;2023-02-01T18:24:39;9.40;;;2.70;;
18526;SDS011;9393;42.158;24.748;2023-02-01T18:27:43;7.70;;;3.30;;
18526;SDS011;9393;42.158;24.748;2023-02-01T18:30:47;7.50;;;3.03;;
18526;SDS011;9393;42.158;24.748;2023-02-01T18:33:53;9.03;;;3.63;;
18526;SDS011;9393;42.158;24.748;2023-02-01T18:36:59;4.93;;;3.07;;
18526;SDS011;9393;42.158;24.748;2023-02-01T18:40:05;13.17;;;3.23;;
18526;SDS011;9393;42.158;24.748;2023-02-01T18:43:10;5.57;;;3.20;;
18526;SDS011;9393;42.158;24.748;2023-02-01T18:46:16;6.53;;;2.93;;
18526;SDS011;9393;42.158;24.748;2023-02-01T18:49:20;5.07;;;3.13;;
18526;SDS011;9393;42.158;24.748;2023-02-01T18:52:24;5.53;;;3.27;;
18526;SDS011;9393;42.158;24.748;2023-02-01T18:55:29;4.60;;;2.70;;
18526;SDS011;9393;42.158;24.748;2023-02-01T18:58:33;4.73;;;3.03;;
18526;SDS011;9393;42.158;24.748;2023-02-01T19:01:37;5.87;;;2.77;;
18526;SDS011;9393;42.158;24.748;2023-02-01T19:04:41;5.17;;;2.53;;
18526;SDS011;9393;42.158;24.748;2023-02-01T19:07:45;6.87;;;2.80;;
18526;SDS011;9393;42.158;24.748;2023-02-01T19:10:50;3.93;;;2.50;;
18526;SDS011;9393;42.158;24.748;2023-02-01T19:13:55;5.40;;;2.60;;
18526;SDS011;9393;42.158;24.748;2023-02-01T19:16:58;3.60;;;2.50;;
18526;SDS011;9393;42.158;24.748;2023-02-01T19:20:02;4.17;;;2.07;;